This is the latest recevied weather packets stored in our database for station/object WD7CGF. If no packets are shown the sender has not sent any weather packets the latest 1 day(s).
| Time | Temp. | Humidity | Pressure | Rain* | Wind** | Luminosity | Snow |
|---|---|---|---|---|---|---|---|
| 1836274655 | 21.67° C | 51% | 1014.9 hPa | 0 mm | 0.45 m/s, 33° | - | - |
| 1836274505 | 21.67° C | 51% | 1015.1 hPa | 0 mm | 0 m/s | - | - |
| 1836274365 | 22.22° C | 51% | 1014.9 hPa | 0 mm | 0 m/s | - | - |
| 1836274214 | 21.67° C | 51% | 1015.1 hPa | 0 mm | 0.89 m/s, 350° | - | - |
| 1836274057 | 22.22° C | 50% | 1014.9 hPa | 0 mm | 1.34 m/s, 250° | - | - |
| 1778050707 | 16.67° C | 59% | 1011.3 hPa | 0 mm | 0.45 m/s, 317° | - | - |
| 1778050101 | 16.11° C | 61% | 1011.3 hPa | 0 mm | 1.34 m/s, 333° | - | - |
| 1778049513 | 16.11° C | 63% | 1011.4 hPa | 0 mm | 0 m/s | - | - |
| 1778048904 | 15.56° C | 64% | 1011.3 hPa | 0 mm | 0 m/s | - | - |
| 1778048314 | 15.56° C | 64% | 1011.3 hPa | 0 mm | 0 m/s | - | - |
| 1778047702 | 16.11° C | 64% | 1011.3 hPa | 0 mm | 0 m/s | - | - |
| 1778047112 | 16.11° C | 63% | 1011 hPa | 0 mm | 0 m/s | - | - |
| 1778046504 | 16.11° C | 63% | 1011 hPa | 0 mm | 0 m/s | - | - |
| 1778045916 | 16.67° C | 62% | 1010.8 hPa | 0 mm | 0 m/s | - | - |
| 1778045310 | 16.67° C | 62% | 1010.7 hPa | 0 mm | 0.45 m/s, 317° | - | - |
| 1778044717 | 16.67° C | 61% | 1010.7 hPa | 0 mm | 0.45 m/s, 330° | - | - |
| 1778044110 | 17.22° C | 60% | 1010.8 hPa | 0 mm | 0 m/s | - | - |
| 1778043501 | 17.22° C | 59% | 1010.6 hPa | 0 mm | 0 m/s | - | - |
| 1778042918 | 17.78° C | 59% | 1010.6 hPa | 0 mm | 0.45 m/s, 333° | - | - |
| 1778041699 | 18.33° C | 56% | 1010.2 hPa | 0 mm | 0 m/s | - | - |
| 1778041109 | 19.44° C | 53% | 1010.2 hPa | 0 mm | 0 m/s | - | - |
| 1778040505 | 20° C | 50% | 1010.1 hPa | 0 mm | 0 m/s | - | - |
| 1778039318 | 21.11° C | 47% | 1009.8 hPa | 0 mm | 0 m/s | - | - |
| 1778038702 | 21.11° C | 46% | 1009.4 hPa | 0 mm | 0 m/s | - | - |
| 1778038111 | 21.67° C | 44% | 1009.2 hPa | 0 mm | 0 m/s | - | - |
* Rain latest hour (hover to see other rain measurements)
** Current wind speed in m/s (hover to see current wind gust speed)